Main page
METAR-TAF:

METAR-TAF

Airports :

Uíge Airport

Uíge, Angola

latitude: 7-36-10S, longitude: 15-1-40E, elevation: 829 m

Current weather observation

The report was made 6 hours and 58 minutes ago, at 16:00 UTC
Wind 10 kt from the North
Temperature 27°C
Humidity 66%
Pressure 1010 hPa
Visibility 10 km or more
Scattered clouds at a height of 2000 ft
Few clouds at a height of 2500 ft, Cumulonimbus.
Broken clouds at a height of 7000 ft
thunderstorm

METAR: FNUG 191600Z 36010KT 9999 TS SCT020 FEW025CB BKN070 27/20 Q1010

Time: 23:58 (22:58 UTC)


TAF: missing

Weather observations and forecasts of more than 4000 airports (METAR and TAF reports).

The available stations are represented by yellow and red dots on the map.

Hover mouse over dot to see the name of the station.

Then click to see weather observations and forecasts.

To change the map : click on the green buttons with a black cross to zoom in, on the green button with a dash to zoom out, or on the green arrows for adjacent maps.


METAR-TAF: